KTUS/TUS METAR and TAF weather

Enter ICAO airport designator
Station Type Date Time Source
KTUS METAR 2018/12/10 08:53 UTC NOAA

KTUS 100853Z 15005KT 10SM CLR 08/05 A3021 RMK AO2 SLP210 T00780050 58008


Station Type Date Time Source
KTUS Decoded METAR 2018/12/10 08:53 UTC NOAA

TUCSON INTERNATIONAL AIRPORT , AZ, United States (KTUS) 32-08N 110-57W 786M
Dec 10, 2018 - 03:53 AM EST / 2018.12.10 0853 UTC
Wind: from the SSE (150 degrees) at 6 MPH (5 KT):0
Visibility: 10 mile(s):0
Sky conditions: clear
Temperature: 46.0 F (7.8 C)
Dew Point: 41.0 F (5.0 C)
Relative Humidity: 82%
Pressure (altimeter): 30.21 in. Hg (1023 hPa)
Pressure tendency: 0.02 inches (0.8 hPa) lower than three hours ago
ob: KTUS 100853Z 15005KT 10SM CLR 08/05 A3021 RMK AO2 SLP210 T00780050 58008
cycle: 9

Station Type Date Time Source
KTUS TAF 2018/12/10 06:22 UTC NOAA

TAF KTUS 100520Z 1006/1106 16006KT P6SM SCT200
FM101200 13013G22KT P6SM BKN150
FM102000 09009KT P6SM BKN150
FM110200 14006KT P6SM BKN150


Example: see airport list